sensor_id;sensor_type;location;lat;lon;timestamp;pressure;altitude;pressure_sealevel;temperature;humidity
51099;BME280;37146;48.210;16.234;2023-05-09T00:01:44;99523.00;;;5.84;100.00
51099;BME280;37146;48.210;16.234;2023-05-09T00:04:10;99524.09;;;5.77;100.00
51099;BME280;37146;48.210;16.234;2023-05-09T00:06:35;99515.28;;;5.73;100.00
51099;BME280;37146;48.210;16.234;2023-05-09T00:09:01;99516.88;;;5.82;100.00
51099;BME280;37146;48.210;16.234;2023-05-09T00:11:26;99514.38;;;5.75;100.00
51099;BME280;37146;48.210;16.234;2023-05-09T00:13:52;99507.19;;;5.80;100.00
51099;BME280;37146;48.210;16.234;2023-05-09T00:16:17;99506.75;;;5.62;100.00
51099;BME280;37146;48.210;16.234;2023-05-09T00:18:44;99506.63;;;5.67;100.00
51099;BME280;37146;48.210;16.234;2023-05-09T00:21:09;99498.28;;;5.45;100.00
51099;BME280;37146;48.210;16.234;2023-05-09T00:23:35;99497.81;;;5.25;100.00
51099;BME280;37146;48.210;16.234;2023-05-09T00:26:00;99494.78;;;5.42;100.00
51099;BME280;37146;48.210;16.234;2023-05-09T00:28:25;99494.66;;;5.49;100.00
51099;BME280;37146;48.210;16.234;2023-05-09T00:30:51;99488.84;;;5.31;100.00
51099;BME280;37146;48.210;16.234;2023-05-09T00:33:18;99489.91;;;5.24;100.00
51099;BME280;37146;48.210;16.234;2023-05-09T00:35:43;99493.25;;;5.32;100.00
51099;BME280;37146;48.210;16.234;2023-05-09T00:38:08;99481.53;;;5.42;100.00
51099;BME280;37146;48.210;16.234;2023-05-09T00:40:33;99472.94;;;5.33;100.00
51099;BME280;37146;48.210;16.234;2023-05-09T00:42:59;99475.47;;;5.36;100.00
51099;BME280;37146;48.210;16.234;2023-05-09T00:45:24;99483.16;;;5.48;100.00
51099;BME280;37146;48.210;16.234;2023-05-09T00:47:49;99480.25;;;5.21;100.00
51099;BME280;37146;48.210;16.234;2023-05-09T00:50:15;99484.44;;;5.30;100.00
51099;BME280;37146;48.210;16.234;2023-05-09T00:52:41;99474.06;;;5.21;100.00
51099;BME280;37146;48.210;16.234;2023-05-09T00:55:06;99472.03;;;5.32;100.00
51099;BME280;37146;48.210;16.234;2023-05-09T00:57:32;99476.50;;;5.30;100.00
51099;BME280;37146;48.210;16.234;2023-05-09T00:59:57;99477.50;;;5.24;100.00
51099;BME280;37146;48.210;16.234;2023-05-09T01:02:23;99471.19;;;5.30;100.00
51099;BME280;37146;48.210;16.234;2023-05-09T01:04:48;99463.31;;;5.27;100.00
51099;BME280;37146;48.210;16.234;2023-05-09T01:22:35;99463.91;;;5.01;100.00
51099;BME280;37146;48.210;16.234;2023-05-09T01:30:11;99469.13;;;5.05;100.00
51099;BME280;37146;48.210;16.234;2023-05-09T01:32:37;99463.72;;;4.66;100.00
51099;BME280;37146;48.210;16.234;2023-05-09T01:35:03;99461.63;;;4.84;100.00
51099;BME280;37146;48.210;16.234;2023-05-09T01:37:33;99460.47;;;4.95;100.00
51099;BME280;37146;48.210;16.234;2023-05-09T01:40:02;99455.47;;;4.80;100.00
51099;BME280;37146;48.210;16.234;2023-05-09T01:42:41;99451.25;;;5.14;100.00
51099;BME280;37146;48.210;16.234;2023-05-09T01:45:08;99454.63;;;4.79;100.00
51099;BME280;37146;48.210;16.234;2023-05-09T01:47:34;99450.22;;;4.78;100.00
51099;BME280;37146;48.210;16.234;2023-05-09T01:50:00;99443.81;;;4.89;100.00
51099;BME280;37146;48.210;16.234;2023-05-09T01:52:25;99446.28;;;4.98;100.00
51099;BME280;37146;48.210;16.234;2023-05-09T01:54:51;99442.19;;;4.83;100.00
51099;BME280;37146;48.210;16.234;2023-05-09T01:57:17;99450.16;;;4.82;100.00
51099;BME280;37146;48.210;16.234;2023-05-09T01:59:43;99435.22;;;4.77;100.00
51099;BME280;37146;48.210;16.234;2023-05-09T02:02:09;99448.28;;;4.87;100.00
51099;BME280;37146;48.210;16.234;2023-05-09T02:04:34;99443.19;;;4.77;100.00
51099;BME280;37146;48.210;16.234;2023-05-09T02:07:00;99436.06;;;4.79;100.00
51099;BME280;37146;48.210;16.234;2023-05-09T02:09:26;99444.28;;;4.67;100.00
51099;BME280;37146;48.210;16.234;2023-05-09T02:11:52;99451.06;;;4.80;100.00
51099;BME280;37146;48.210;16.234;2023-05-09T02:14:17;99451.13;;;4.79;100.00
51099;BME280;37146;48.210;16.234;2023-05-09T02:16:43;99452.78;;;4.83;100.00
51099;BME280;37146;48.210;16.234;2023-05-09T02:19:08;99454.47;;;4.87;100.00
51099;BME280;37146;48.210;16.234;2023-05-09T02:21:33;99456.09;;;4.51;100.00
51099;BME280;37146;48.210;16.234;2023-05-09T02:23:59;99449.06;;;4.49;100.00
51099;BME280;37146;48.210;16.234;2023-05-09T02:26:24;99448.88;;;4.59;100.00
51099;BME280;37146;48.210;16.234;2023-05-09T02:28:50;99441.44;;;4.76;100.00
51099;BME280;37146;48.210;16.234;2023-05-09T02:31:15;99447.41;;;4.44;100.00
51099;BME280;37146;48.210;16.234;2023-05-09T02:33:43;99445.19;;;4.66;100.00
51099;BME280;37146;48.210;16.234;2023-05-09T02:36:09;99444.22;;;4.69;100.00
51099;BME280;37146;48.210;16.234;2023-05-09T02:38:34;99431.84;;;4.71;100.00
51099;BME280;37146;48.210;16.234;2023-05-09T02:41:00;99432.84;;;4.65;100.00
51099;BME280;37146;48.210;16.234;2023-05-09T02:43:25;99439.03;;;4.64;100.00
51099;BME280;37146;48.210;16.234;2023-05-09T02:45:50;99439.56;;;4.39;100.00
51099;BME280;37146;48.210;16.234;2023-05-09T02:48:15;99432.19;;;4.54;100.00
51099;BME280;37146;48.210;16.234;2023-05-09T02:50:41;99438.72;;;4.79;100.00
51099;BME280;37146;48.210;16.234;2023-05-09T02:53:07;99431.22;;;4.58;100.00
51099;BME280;37146;48.210;16.234;2023-05-09T02:55:32;99444.19;;;4.72;100.00
51099;BME280;37146;48.210;16.234;2023-05-09T02:57:58;99434.06;;;4.91;100.00
51099;BME280;37146;48.210;16.234;2023-05-09T03:00:23;99435.69;;;4.56;100.00
51099;BME280;37146;48.210;16.234;2023-05-09T03:02:49;99440.03;;;4.60;100.00
51099;BME280;37146;48.210;16.234;2023-05-09T03:05:15;99442.31;;;4.77;100.00
51099;BME280;37146;48.210;16.234;2023-05-09T03:07:40;99431.69;;;4.78;100.00
51099;BME280;37146;48.210;16.234;2023-05-09T03:10:05;99431.47;;;4.45;100.00
51099;BME280;37146;48.210;16.234;2023-05-09T03:12:31;99426.28;;;4.83;100.00
51099;BME280;37146;48.210;16.234;2023-05-09T03:14:56;99430.03;;;4.73;100.00
51099;BME280;37146;48.210;16.234;2023-05-09T03:17:21;99426.53;;;4.71;100.00
51099;BME280;37146;48.210;16.234;2023-05-09T03:19:47;99428.34;;;4.69;100.00
51099;BME280;37146;48.210;16.234;2023-05-09T03:22:12;99425.47;;;4.79;100.00
51099;BME280;37146;48.210;16.234;2023-05-09T03:24:38;99428.91;;;4.85;100.00
51099;BME280;37146;48.210;16.234;2023-05-09T03:27:03;99438.03;;;4.71;100.00
51099;BME280;37146;48.210;16.234;2023-05-09T03:29:28;99431.94;;;4.66;100.00
51099;BME280;37146;48.210;16.234;2023-05-09T03:31:53;99432.63;;;4.76;100.00
51099;BME280;37146;48.210;16.234;2023-05-09T03:34:19;99434.22;;;4.85;100.00
51099;BME280;37146;48.210;16.234;2023-05-09T03:36:44;99434.97;;;4.90;100.00
51099;BME280;37146;48.210;16.234;2023-05-09T03:39:09;99438.78;;;4.76;100.00
51099;BME280;37146;48.210;16.234;2023-05-09T03:41:35;99436.47;;;4.61;100.00
51099;BME280;37146;48.210;16.234;2023-05-09T03:44:01;99436.28;;;4.70;100.00
51099;BME280;37146;48.210;16.234;2023-05-09T03:46:26;99427.63;;;4.62;100.00
51099;BME280;37146;48.210;16.234;2023-05-09T03:48:51;99431.72;;;4.75;100.00
51099;BME280;37146;48.210;16.234;2023-05-09T03:51:16;99438.66;;;4.83;100.00
51099;BME280;37146;48.210;16.234;2023-05-09T03:53:42;99438.78;;;4.76;100.00
51099;BME280;37146;48.210;16.234;2023-05-09T03:56:07;99433.53;;;4.75;100.00
51099;BME280;37146;48.210;16.234;2023-05-09T03:58:33;99435.28;;;4.76;100.00
51099;BME280;37146;48.210;16.234;2023-05-09T04:00:58;99432.72;;;4.71;100.00
51099;BME280;37146;48.210;16.234;2023-05-09T04:03:23;99439.56;;;4.82;100.00
51099;BME280;37146;48.210;16.234;2023-05-09T04:05:48;99444.63;;;4.92;100.00
51099;BME280;37146;48.210;16.234;2023-05-09T04:08:14;99434.53;;;5.10;100.00
51099;BME280;37146;48.210;16.234;2023-05-09T04:10:39;99442.66;;;5.02;100.00
51099;BME280;37146;48.210;16.234;2023-05-09T04:13:04;99439.84;;;5.10;100.00
51099;BME280;37146;48.210;16.234;2023-05-09T04:15:29;99440.38;;;4.85;100.00
51099;BME280;37146;48.210;16.234;2023-05-09T04:17:55;99433.09;;;4.95;100.00
51099;BME280;37146;48.210;16.234;2023-05-09T04:20:20;99439.84;;;5.10;100.00
51099;BME280;37146;48.210;16.234;2023-05-09T04:22:45;99442.13;;;5.27;100.00
51099;BME280;37146;48.210;16.234;2023-05-09T04:25:11;99440.06;;;5.38;100.00
51099;BME280;37146;48.210;16.234;2023-05-09T04:27:38;99444.25;;;5.49;100.00
51099;BME280;37146;48.210;16.234;2023-05-09T04:30:03;99441.91;;;5.72;100.00
51099;BME280;37146;48.210;16.234;2023-05-09T04:32:29;99439.75;;;5.87;100.00
51099;BME280;37146;48.210;16.234;2023-05-09T04:34:54;99450.06;;;6.01;100.00
51099;BME280;37146;48.210;16.234;2023-05-09T04:37:19;99437.38;;;6.12;100.00
51099;BME280;37146;48.210;16.234;2023-05-09T04:39:45;99440.00;;;6.14;99.93
51099;BME280;37146;48.210;16.234;2023-05-09T04:42:10;99441.06;;;6.40;98.19
51099;BME280;37146;48.210;16.234;2023-05-09T04:44:35;99442.91;;;6.38;97.71
51099;BME280;37146;48.210;16.234;2023-05-09T04:47:00;99445.31;;;6.45;97.85
51099;BME280;37146;48.210;16.234;2023-05-09T04:49:26;99450.53;;;6.50;97.46
51099;BME280;37146;48.210;16.234;2023-05-09T04:51:51;99440.50;;;6.60;95.31
51099;BME280;37146;48.210;16.234;2023-05-09T04:54:16;99444.72;;;6.67;95.05
51099;BME280;37146;48.210;16.234;2023-05-09T04:56:41;99434.78;;;6.74;93.86
51099;BME280;37146;48.210;16.234;2023-05-09T04:59:07;99431.75;;;6.86;93.19
51099;BME280;37146;48.210;16.234;2023-05-09T05:01:32;99435.88;;;6.96;92.49
51099;BME280;37146;48.210;16.234;2023-05-09T05:03:57;99433.91;;;7.05;92.02
51099;BME280;37146;48.210;16.234;2023-05-09T05:06:22;99430.97;;;7.12;91.81
51099;BME280;37146;48.210;16.234;2023-05-09T05:08:47;99428.28;;;7.14;89.58
51099;BME280;37146;48.210;16.234;2023-05-09T05:11:13;99428.84;;;7.24;88.25
51099;BME280;37146;48.210;16.234;2023-05-09T05:13:38;99437.50;;;7.31;87.73
51099;BME280;37146;48.210;16.234;2023-05-09T05:16:03;99433.25;;;7.53;86.45
51099;BME280;37146;48.210;16.234;2023-05-09T05:18:29;99436.88;;;7.51;85.42
51099;BME280;37146;48.210;16.234;2023-05-09T05:20:54;99435.22;;;7.48;85.07
51099;BME280;37146;48.210;16.234;2023-05-09T05:23:19;99440.06;;;7.62;84.01
51099;BME280;37146;48.210;16.234;2023-05-09T05:25:45;99436.78;;;7.54;83.93
51099;BME280;37146;48.210;16.234;2023-05-09T05:28:10;99440.31;;;7.54;83.18
51099;BME280;37146;48.210;16.234;2023-05-09T05:30:35;99441.56;;;7.71;83.54
51099;BME280;37146;48.210;16.234;2023-05-09T05:33:00;99436.19;;;7.72;82.56
51099;BME280;37146;48.210;16.234;2023-05-09T05:35:25;99427.53;;;7.93;82.38
51099;BME280;37146;48.210;16.234;2023-05-09T05:37:52;99424.38;;;7.81;81.08
51099;BME280;37146;48.210;16.234;2023-05-09T05:40:17;99426.63;;;7.94;81.79
51099;BME280;37146;48.210;16.234;2023-05-09T05:42:42;99420.34;;;7.95;81.05
51099;BME280;37146;48.210;16.234;2023-05-09T05:45:08;99420.97;;;8.03;80.61
51099;BME280;37146;48.210;16.234;2023-05-09T05:47:34;99421.03;;;8.27;80.45
51099;BME280;37146;48.210;16.234;2023-05-09T05:49:59;99416.97;;;8.40;81.04
51099;BME280;37146;48.210;16.234;2023-05-09T05:52:25;99423.47;;;8.33;79.51
51099;BME280;37146;48.210;16.234;2023-05-09T05:54:51;99416.97;;;8.40;79.10
51099;BME280;37146;48.210;16.234;2023-05-09T05:57:16;99422.66;;;8.56;78.52
51099;BME280;37146;48.210;16.234;2023-05-09T05:59:41;99412.16;;;8.51;78.06
51099;BME280;37146;48.210;16.234;2023-05-09T06:02:07;99420.44;;;8.68;77.43
51099;BME280;37146;48.210;16.234;2023-05-09T06:04:32;99417.75;;;8.69;77.40
51099;BME280;37146;48.210;16.234;2023-05-09T06:06:57;99413.56;;;8.86;76.10
51099;BME280;37146;48.210;16.234;2023-05-09T06:09:22;99407.63;;;9.01;74.82
51099;BME280;37146;48.210;16.234;2023-05-09T06:11:47;99408.13;;;9.11;74.78
51099;BME280;37146;48.210;16.234;2023-05-09T06:14:13;99411.66;;;9.35;74.55
51099;BME280;37146;48.210;16.234;2023-05-09T06:16:38;99418.53;;;8.95;72.82
51099;BME280;37146;48.210;16.234;2023-05-09T06:19:03;99408.66;;;9.21;74.14
51099;BME280;37146;48.210;16.234;2023-05-09T06:21:28;99403.44;;;9.40;72.67
51099;BME280;37146;48.210;16.234;2023-05-09T06:23:54;99408.06;;;9.36;73.20
51099;BME280;37146;48.210;16.234;2023-05-09T06:26:19;99403.56;;;9.37;72.34
51099;BME280;37146;48.210;16.234;2023-05-09T06:28:46;99405.50;;;9.33;71.71
51099;BME280;37146;48.210;16.234;2023-05-09T06:31:11;99398.22;;;9.37;72.34
51099;BME280;37146;48.210;16.234;2023-05-09T06:33:36;99400.47;;;9.48;72.33
51099;BME280;37146;48.210;16.234;2023-05-09T06:36:01;99396.28;;;9.40;72.67
51099;BME280;37146;48.210;16.234;2023-05-09T06:38:27;99399.00;;;9.83;71.78
51099;BME280;37146;48.210;16.234;2023-05-09T06:40:52;99395.59;;;9.80;70.42
51099;BME280;37146;48.210;16.234;2023-05-09T06:43:17;99393.97;;;9.75;70.34
51099;BME280;37146;48.210;16.234;2023-05-09T06:45:42;99395.16;;;9.68;70.53
51099;BME280;37146;48.210;16.234;2023-05-09T06:48:08;99393.31;;;9.91;70.01
51099;BME280;37146;48.210;16.234;2023-05-09T06:50:34;99388.63;;;9.75;70.50
51099;BME280;37146;48.210;16.234;2023-05-09T06:52:59;99392.94;;;10.00;68.84
51099;BME280;37146;48.210;16.234;2023-05-09T06:55:24;99391.06;;;10.44;69.03
51099;BME280;37146;48.210;16.234;2023-05-09T06:57:49;99390.75;;;10.29;68.86
51099;BME280;37146;48.210;16.234;2023-05-09T07:00:15;99379.25;;;10.48;68.00
51099;BME280;37146;48.210;16.234;2023-05-09T07:02:40;99378.31;;;10.49;68.71
51099;BME280;37146;48.210;16.234;2023-05-09T07:05:06;99382.19;;;10.62;68.24
51099;BME280;37146;48.210;16.234;2023-05-09T07:07:31;99379.22;;;10.49;67.81
51099;BME280;37146;48.210;16.234;2023-05-09T07:09:57;99379.38;;;10.65;68.04
51099;BME280;37146;48.210;16.234;2023-05-09T07:12:24;99373.34;;;10.60;66.95
51099;BME280;37146;48.210;16.234;2023-05-09T07:14:50;99381.91;;;10.69;67.59
51099;BME280;37146;48.210;16.234;2023-05-09T07:17:15;99374.53;;;11.12;66.83
51099;BME280;37146;48.210;16.234;2023-05-09T07:19:40;99376.34;;;10.92;66.40
51099;BME280;37146;48.210;16.234;2023-05-09T07:22:05;99378.72;;;10.60;67.15
51099;BME280;37146;48.210;16.234;2023-05-09T07:24:30;99373.59;;;10.75;67.30
51099;BME280;37146;48.210;16.234;2023-05-09T07:26:56;99372.84;;;11.28;66.98
51099;BME280;37146;48.210;16.234;2023-05-09T07:29:21;99370.84;;;10.95;66.38
51099;BME280;37146;48.210;16.234;2023-05-09T07:31:46;99366.38;;;10.96;66.22
51099;BME280;37146;48.210;16.234;2023-05-09T07:34:11;99362.94;;;11.48;65.99
51099;BME280;37146;48.210;16.234;2023-05-09T07:36:36;99369.91;;;11.70;65.33
51099;BME280;37146;48.210;16.234;2023-05-09T07:39:02;99362.50;;;11.57;65.23
51099;BME280;37146;48.210;16.234;2023-05-09T07:41:29;99354.84;;;11.13;65.60
51099;BME280;37146;48.210;16.234;2023-05-09T07:43:54;99355.94;;;11.63;64.80
51099;BME280;37146;48.210;16.234;2023-05-09T07:46:19;99350.94;;;11.38;64.17
51099;BME280;37146;48.210;16.234;2023-05-09T07:48:44;99352.50;;;11.61;63.73
51099;BME280;37146;48.210;16.234;2023-05-09T07:51:09;99350.84;;;11.76;63.74
51099;BME280;37146;48.210;16.234;2023-05-09T07:53:35;99362.91;;;11.85;63.91
51099;BME280;37146;48.210;16.234;2023-05-09T07:56:00;99352.91;;;11.88;64.65
51099;BME280;37146;48.210;16.234;2023-05-09T07:58:25;99350.56;;;12.00;63.30
51099;BME280;37146;48.210;16.234;2023-05-09T08:00:50;99340.84;;;12.15;62.12
51099;BME280;37146;48.210;16.234;2023-05-09T08:03:16;99328.94;;;11.85;62.37
51099;BME280;37146;48.210;16.234;2023-05-09T08:05:41;99319.84;;;12.57;62.46
51099;BME280;37146;48.210;16.234;2023-05-09T08:08:06;99325.00;;;12.60;60.91
51099;BME280;37146;48.210;16.234;2023-05-09T08:10:31;99326.59;;;12.64;61.92
51099;BME280;37146;48.210;16.234;2023-05-09T08:12:57;99343.59;;;11.96;61.66
51099;BME280;37146;48.210;16.234;2023-05-09T08:15:23;99337.38;;;11.95;61.66
51099;BME280;37146;48.210;16.234;2023-05-09T08:17:48;99326.19;;;12.38;61.68
51099;BME280;37146;48.210;16.234;2023-05-09T08:20:13;99319.25;;;12.18;61.84
51099;BME280;37146;48.210;16.234;2023-05-09T08:22:39;99322.25;;;12.45;62.02
51099;BME280;37146;48.210;16.234;2023-05-09T08:25:04;99319.13;;;12.69;60.62
51099;BME280;37146;48.210;16.234;2023-05-09T08:27:30;99335.69;;;12.93;59.92
51099;BME280;37146;48.210;16.234;2023-05-09T08:29:55;99326.66;;;12.62;60.92
51099;BME280;37146;48.210;16.234;2023-05-09T08:32:20;99330.22;;;12.95;60.03
51099;BME280;37146;48.210;16.234;2023-05-09T08:34:45;99335.09;;;13.04;59.32
51099;BME280;37146;48.210;16.234;2023-05-09T08:37:11;99333.34;;;12.87;59.46
51099;BME280;37146;48.210;16.234;2023-05-09T08:39:36;99328.03;;;13.34;58.96
51099;BME280;37146;48.210;16.234;2023-05-09T08:42:01;99323.81;;;12.97;59.50
51099;BME280;37146;48.210;16.234;2023-05-09T08:44:27;99327.91;;;13.21;59.01
51099;BME280;37146;48.210;16.234;2023-05-09T08:47:00;99328.66;;;13.55;57.47
51099;BME280;37146;48.210;16.234;2023-05-09T08:49:25;99316.38;;;12.87;58.39
51099;BME280;37146;48.210;16.234;2023-05-09T08:51:51;99313.94;;;13.30;58.64
51099;BME280;37146;48.210;16.234;2023-05-09T08:54:17;99308.56;;;13.91;56.66
51099;BME280;37146;48.210;16.234;2023-05-09T08:56:42;99312.25;;;14.04;57.26
51099;BME280;37146;48.210;16.234;2023-05-09T08:59:08;99304.41;;;13.85;56.80
51099;BME280;37146;48.210;16.234;2023-05-09T09:01:33;99307.38;;;14.26;56.18
51099;BME280;37146;48.210;16.234;2023-05-09T09:04:01;99311.66;;;13.99;56.05
51099;BME280;37146;48.210;16.234;2023-05-09T09:06:29;99306.50;;;13.66;57.07
51099;BME280;37146;48.210;16.234;2023-05-09T09:08:55;99297.53;;;14.10;57.37
51099;BME280;37146;48.210;16.234;2023-05-09T09:11:20;99295.34;;;14.46;54.96
51099;BME280;37146;48.210;16.234;2023-05-09T09:13:46;99287.97;;;15.46;54.25
51099;BME280;37146;48.210;16.234;2023-05-09T09:16:16;99298.03;;;14.17;54.76
51099;BME280;37146;48.210;16.234;2023-05-09T09:18:43;99295.22;;;14.62;54.11
51099;BME280;37146;48.210;16.234;2023-05-09T09:21:09;99295.81;;;14.81;54.13
51099;BME280;37146;48.210;16.234;2023-05-09T09:23:36;99307.84;;;14.32;54.49
51099;BME280;37146;48.210;16.234;2023-05-09T09:26:03;99289.53;;;14.66;53.95
51099;BME280;37146;48.210;16.234;2023-05-09T09:28:31;99289.09;;;15.02;54.01
51099;BME280;37146;48.210;16.234;2023-05-09T09:30:56;99289.72;;;15.47;53.38
51099;BME280;37146;48.210;16.234;2023-05-09T09:33:22;99297.34;;;14.57;54.08
51099;BME280;37146;48.210;16.234;2023-05-09T09:35:48;99284.97;;;14.54;53.87
51099;BME280;37146;48.210;16.234;2023-05-09T09:38:15;99283.09;;;14.83;52.78
51099;BME280;37146;48.210;16.234;2023-05-09T09:40:46;99275.75;;;15.81;52.01
51099;BME280;37146;48.210;16.234;2023-05-09T09:43:12;99280.66;;;15.61;51.28
51099;BME280;37146;48.210;16.234;2023-05-09T09:45:37;99292.09;;;16.31;51.42
51099;BME280;37146;48.210;16.234;2023-05-09T09:48:05;99280.00;;;15.44;51.50
51099;BME280;37146;48.210;16.234;2023-05-09T09:50:31;99283.84;;;15.81;51.74
51099;BME280;37146;48.210;16.234;2023-05-09T09:52:56;99279.81;;;15.60;50.59
51099;BME280;37146;48.210;16.234;2023-05-09T09:55:22;99288.47;;;15.79;50.96
51099;BME280;37146;48.210;16.234;2023-05-09T09:57:48;99277.25;;;15.59;50.76
51099;BME280;37146;48.210;16.234;2023-05-09T10:00:14;99276.13;;;16.28;50.16
51099;BME280;37146;48.210;16.234;2023-05-09T10:02:48;99283.91;;;15.53;51.27
51099;BME280;37146;48.210;16.234;2023-05-09T10:05:18;99283.56;;;16.37;50.35
51099;BME280;37146;48.210;16.234;2023-05-09T10:07:43;99257.66;;;16.34;49.86
51099;BME280;37146;48.210;16.234;2023-05-09T10:10:08;99270.72;;;17.39;47.21
51099;BME280;37146;48.210;16.234;2023-05-09T10:12:36;99269.97;;;16.26;49.61
51099;BME280;37146;48.210;16.234;2023-05-09T10:15:03;99255.84;;;16.09;49.95
51099;BME280;37146;48.210;16.234;2023-05-09T10:17:31;99255.91;;;16.33;50.47
51099;BME280;37146;48.210;16.234;2023-05-09T10:19:57;99251.91;;;16.39;49.80
51099;BME280;37146;48.210;16.234;2023-05-09T10:22:26;99250.34;;;16.98;48.81
51099;BME280;37146;48.210;16.234;2023-05-09T10:25:00;99265.03;;;17.07;47.77
51099;BME280;37146;48.210;16.234;2023-05-09T10:27:25;99259.09;;;17.26;47.50
51099;BME280;37146;48.210;16.234;2023-05-09T10:29:56;99255.22;;;16.93;46.88
51099;BME280;37146;48.210;16.234;2023-05-09T10:32:30;99251.63;;;17.76;46.71
51099;BME280;37146;48.210;16.234;2023-05-09T10:34:57;99237.09;;;18.36;46.06
51099;BME280;37146;48.210;16.234;2023-05-09T10:37:25;99240.06;;;19.11;45.20
51099;BME280;37146;48.210;16.234;2023-05-09T10:39:51;99237.94;;;19.14;44.87
51099;BME280;37146;48.210;16.234;2023-05-09T10:42:18;99228.25;;;18.45;45.29
51099;BME280;37146;48.210;16.234;2023-05-09T10:44:45;99232.72;;;19.55;44.39
51099;BME280;37146;48.210;16.234;2023-05-09T10:47:10;99214.81;;;18.44;45.19
51099;BME280;37146;48.210;16.234;2023-05-09T10:49:37;99230.06;;;18.11;45.93
51099;BME280;37146;48.210;16.234;2023-05-09T10:52:02;99231.72;;;17.77;47.16
51099;BME280;37146;48.210;16.234;2023-05-09T10:54:29;99221.72;;;17.55;47.14
51099;BME280;37146;48.210;16.234;2023-05-09T10:56:56;99231.66;;;17.55;46.83
51099;BME280;37146;48.210;16.234;2023-05-09T11:02:00;99218.25;;;18.12;45.27
51099;BME280;37146;48.210;16.234;2023-05-09T11:04:27;99214.94;;;18.19;46.05
51099;BME280;37146;48.210;16.234;2023-05-09T11:06:52;99205.59;;;19.02;45.34
51099;BME280;37146;48.210;16.234;2023-05-09T11:11:53;99201.78;;;18.15;46.23
51099;BME280;37146;48.210;16.234;2023-05-09T11:22:19;99183.81;;;18.14;47.41
51099;BME280;37146;48.210;16.234;2023-05-09T11:24:46;99188.53;;;20.17;43.80
51099;BME280;37146;48.210;16.234;2023-05-09T11:29:43;99186.41;;;20.71;41.78
51099;BME280;37146;48.210;16.234;2023-05-09T11:32:13;99201.63;;;20.02;42.52
51099;BME280;37146;48.210;16.234;2023-05-09T11:34:41;99188.25;;;20.61;41.21
51099;BME280;37146;48.210;16.234;2023-05-09T11:37:14;99199.16;;;17.32;45.82
51099;BME280;37146;48.210;16.234;2023-05-09T11:40:01;99184.75;;;19.02;43.29
51099;BME280;37146;48.210;16.234;2023-05-09T11:42:28;99180.78;;;18.74;44.43
51099;BME280;37146;48.210;16.234;2023-05-09T11:44:57;99174.97;;;16.58;49.45
51099;BME280;37146;48.210;16.234;2023-05-09T11:47:23;99172.06;;;20.49;41.15
51099;BME280;37146;48.210;16.234;2023-05-09T11:49:48;99167.13;;;17.03;48.19
51099;BME280;37146;48.210;16.234;2023-05-09T11:52:14;99155.78;;;18.15;46.42
51099;BME280;37146;48.210;16.234;2023-05-09T11:54:39;99175.59;;;16.37;49.74
51099;BME280;37146;48.210;16.234;2023-05-09T11:57:05;99170.31;;;16.22;50.94
51099;BME280;37146;48.210;16.234;2023-05-09T11:59:30;99162.38;;;16.45;50.92
51099;BME280;37146;48.210;16.234;2023-05-09T12:01:56;99157.84;;;15.70;50.80
51099;BME280;37146;48.210;16.234;2023-05-09T12:04:21;99161.19;;;15.99;50.95
51099;BME280;37146;48.210;16.234;2023-05-09T12:06:46;99156.22;;;16.06;51.40
51099;BME280;37146;48.210;16.234;2023-05-09T12:09:12;99152.56;;;16.07;52.01
51099;BME280;37146;48.210;16.234;2023-05-09T12:11:45;99129.22;;;16.43;50.89
51099;BME280;37146;48.210;16.234;2023-05-09T12:14:11;99138.09;;;15.82;52.02
51099;BME280;37146;48.210;16.234;2023-05-09T12:16:49;99136.94;;;15.86;51.93
51099;BME280;37146;48.210;16.234;2023-05-09T12:19:14;99130.69;;;15.73;51.74
51099;BME280;37146;48.210;16.234;2023-05-09T12:21:42;99140.69;;;15.45;51.91
51099;BME280;37146;48.210;16.234;2023-05-09T12:24:07;99129.03;;;16.09;50.82
51099;BME280;37146;48.210;16.234;2023-05-09T12:26:32;99126.44;;;17.29;48.77
51099;BME280;37146;48.210;16.234;2023-05-09T12:28:57;99129.81;;;17.08;48.59
51099;BME280;37146;48.210;16.234;2023-05-09T12:31:23;99114.31;;;17.10;48.15
51099;BME280;37146;48.210;16.234;2023-05-09T12:33:48;99121.72;;;16.60;48.85
51099;BME280;37146;48.210;16.234;2023-05-09T12:36:14;99120.88;;;16.70;49.11
51099;BME280;37146;48.210;16.234;2023-05-09T12:38:40;99115.03;;;17.01;48.58
51099;BME280;37146;48.210;16.234;2023-05-09T12:41:16;99108.22;;;17.20;48.27
51099;BME280;37146;48.210;16.234;2023-05-09T12:43:42;99118.97;;;16.97;48.43
51099;BME280;37146;48.210;16.234;2023-05-09T12:46:11;99108.81;;;16.88;48.73
51099;BME280;37146;48.210;16.234;2023-05-09T12:48:37;99117.94;;;17.22;48.61
51099;BME280;37146;48.210;16.234;2023-05-09T12:51:03;99096.72;;;16.45;49.11
51099;BME280;37146;48.210;16.234;2023-05-09T12:53:28;99092.06;;;16.71;49.97
51099;BME280;37146;48.210;16.234;2023-05-09T12:56:00;99084.09;;;16.45;50.28
51099;BME280;37146;48.210;16.234;2023-05-09T12:58:30;99087.06;;;16.29;49.82
51099;BME280;37146;48.210;16.234;2023-05-09T13:00:56;99068.63;;;16.47;50.48
51099;BME280;37146;48.210;16.234;2023-05-09T13:05:56;99075.25;;;17.03;48.43
51099;BME280;37146;48.210;16.234;2023-05-09T13:08:22;99068.28;;;17.12;48.20
51099;BME280;37146;48.210;16.234;2023-05-09T13:10:47;99057.13;;;17.73;47.59
51099;BME280;37146;48.210;16.234;2023-05-09T13:13:15;99081.84;;;17.35;47.77
51099;BME280;37146;48.210;16.234;2023-05-09T13:15:42;99057.50;;;17.23;48.56
51099;BME280;37146;48.210;16.234;2023-05-09T13:18:07;99055.34;;;17.04;48.92
51099;BME280;37146;48.210;16.234;2023-05-09T13:20:32;99049.44;;;16.99;49.04
51099;BME280;37146;48.210;16.234;2023-05-09T13:22:57;99046.06;;;16.48;49.56
51099;BME280;37146;48.210;16.234;2023-05-09T13:25:23;99051.31;;;17.10;48.20